createdAt,value
2022-12-18T00:02:12.613Z,-5.29
2022-12-18T00:04:39.313Z,-5.28
2022-12-18T00:07:05.749Z,-5.60
2022-12-18T00:09:32.188Z,-5.39
2022-12-18T00:14:44.287Z,-5.23
2022-12-18T00:17:10.661Z,-5.25
2022-12-18T00:19:37.153Z,-5.54
2022-12-18T00:22:03.773Z,-5.54
2022-12-18T00:24:30.272Z,-5.55
2022-12-18T00:26:56.649Z,-5.72
2022-12-18T00:29:23.042Z,-5.62
2022-12-18T00:31:49.617Z,-5.91
2022-12-18T00:34:16.188Z,-5.80
2022-12-18T00:36:42.733Z,-5.86
2022-12-18T00:39:10.879Z,-5.83
2022-12-18T00:41:55.791Z,-5.80
2022-12-18T00:44:22.355Z,-5.73
2022-12-18T00:46:49.226Z,-5.75
2022-12-18T00:49:20.626Z,-5.59
2022-12-18T00:51:47.345Z,-5.68
2022-12-18T00:54:14.316Z,-5.98
2022-12-18T00:56:48.189Z,-5.90
2022-12-18T00:59:15.572Z,-6.15
2022-12-18T01:01:42.179Z,-6.01
2022-12-18T01:04:09.136Z,-6.06
2022-12-18T01:06:35.632Z,-6.00
2022-12-18T01:09:03.107Z,-6.19
2022-12-18T01:11:29.554Z,-6.22
2022-12-18T01:13:56.291Z,-5.98
2022-12-18T01:16:23.231Z,-5.99
2022-12-18T01:18:53.424Z,-6.01
2022-12-18T01:21:19.986Z,-5.95
2022-12-18T01:23:46.964Z,-6.00
2022-12-18T01:26:16.525Z,-6.16
2022-12-18T01:28:44.776Z,-6.09
2022-12-18T01:31:14.284Z,-6.08
2022-12-18T01:33:41.481Z,-5.89
2022-12-18T01:36:08.698Z,-5.96
2022-12-18T01:38:35.107Z,-6.32
2022-12-18T01:41:02.761Z,-6.19
2022-12-18T01:43:42.117Z,-6.04
2022-12-18T01:46:08.601Z,-6.02
2022-12-18T01:48:35.035Z,-6.15
2022-12-18T01:51:02.254Z,-6.17
2022-12-18T01:53:29.096Z,-6.32
2022-12-18T01:56:00.089Z,-6.27
2022-12-18T01:58:57.173Z,-6.26
2022-12-18T02:01:24.180Z,-6.34
2022-12-18T02:03:51.168Z,-6.23
2022-12-18T02:06:26.933Z,-6.25
2022-12-18T02:09:03.068Z,-6.32
2022-12-18T02:11:56.617Z,-6.34
2022-12-18T02:14:31.523Z,-6.23
2022-12-18T02:17:06.469Z,-6.00
2022-12-18T02:19:50.945Z,-6.09
2022-12-18T02:22:35.727Z,-6.30
2022-12-18T02:25:21.696Z,-6.41
2022-12-18T02:27:51.507Z,-6.47
2022-12-18T02:30:18.720Z,-6.56
2022-12-18T02:32:50.468Z,-6.79
2022-12-18T02:35:23.072Z,-6.68
2022-12-18T02:37:49.692Z,-6.67
2022-12-18T02:40:18.195Z,-6.73
2022-12-18T02:42:44.713Z,-6.92
2022-12-18T02:45:11.545Z,-7.11
2022-12-18T02:47:41.569Z,-7.06
2022-12-18T02:50:44.755Z,-7.02
2022-12-18T02:53:19.986Z,-7.03
2022-12-18T02:55:49.305Z,-6.92
2022-12-18T02:58:21.322Z,-6.96
2022-12-18T03:01:08.328Z,-6.87
2022-12-18T03:03:43.243Z,-7.19
2022-12-18T03:06:41.209Z,-7.07
2022-12-18T03:09:11.867Z,-7.18
2022-12-18T03:12:01.346Z,-7.16
2022-12-18T03:14:32.098Z,-7.16
2022-12-18T03:17:02.873Z,-7.19
2022-12-18T03:19:32.388Z,-7.16
2022-12-18T03:22:02.712Z,-7.09
2022-12-18T03:24:32.285Z,-7.10
2022-12-18T03:27:03.385Z,-7.10
2022-12-18T03:29:54.336Z,-7.16
2022-12-18T03:32:34.141Z,-7.25
2022-12-18T03:35:04.996Z,-7.21
2022-12-18T03:37:31.530Z,-7.12
2022-12-18T03:39:58.118Z,-7.28
2022-12-18T03:42:50.882Z,-7.37
2022-12-18T03:45:25.131Z,-7.43
2022-12-18T03:47:59.252Z,-7.32
2022-12-18T03:50:33.182Z,-7.44
2022-12-18T03:53:11.054Z,-7.38
2022-12-18T03:55:38.229Z,-7.34
2022-12-18T03:58:07.756Z,-7.37
2022-12-18T04:00:35.101Z,-7.32
2022-12-18T04:03:04.477Z,-7.10
2022-12-18T04:05:32.924Z,-7.25
2022-12-18T04:07:59.909Z,-7.32
2022-12-18T04:10:26.423Z,-7.25
2022-12-18T04:12:57.090Z,-7.23
2022-12-18T04:15:23.542Z,-7.10
2022-12-18T04:17:50.872Z,-7.21
2022-12-18T04:20:18.360Z,-7.11
2022-12-18T04:22:44.778Z,-7.02
2022-12-18T04:25:11.176Z,-7.24
2022-12-18T04:27:37.689Z,-6.94
2022-12-18T04:30:04.727Z,-7.09
2022-12-18T04:32:31.934Z,-7.02
2022-12-18T04:34:58.329Z,-7.12
2022-12-18T04:37:24.770Z,-7.07
2022-12-18T04:39:51.647Z,-6.91
2022-12-18T04:42:20.416Z,-6.80
2022-12-18T04:44:46.831Z,-6.95
2022-12-18T04:47:13.261Z,-6.94
2022-12-18T04:49:39.739Z,-6.91
2022-12-18T04:52:06.116Z,-6.89
2022-12-18T04:54:32.529Z,-6.88
2022-12-18T04:56:58.944Z,-6.74
2022-12-18T04:59:25.425Z,-6.89
2022-12-18T05:01:51.922Z,-6.73
2022-12-18T05:04:18.455Z,-6.56
2022-12-18T05:06:46.313Z,-6.79
2022-12-18T05:09:12.854Z,-6.56
2022-12-18T05:11:39.270Z,-6.60
2022-12-18T05:14:05.748Z,-6.62
2022-12-18T05:16:32.526Z,-6.55
2022-12-18T05:18:59.009Z,-6.59
2022-12-18T05:21:25.420Z,-6.71
2022-12-18T05:23:51.885Z,-6.59
2022-12-18T05:26:19.479Z,-6.63
2022-12-18T05:28:45.837Z,-6.65
2022-12-18T05:31:12.383Z,-6.70
2022-12-18T05:33:39.389Z,-6.61
2022-12-18T05:36:08.353Z,-6.60
2022-12-18T05:38:37.680Z,-6.68
2022-12-18T05:41:04.994Z,-6.68
2022-12-18T05:43:31.984Z,-6.68
2022-12-18T05:45:58.560Z,-6.67
2022-12-18T05:48:24.998Z,-6.60
2022-12-18T05:50:52.196Z,-6.71
2022-12-18T05:53:20.873Z,-6.69
2022-12-18T05:55:48.180Z,-6.78
2022-12-18T05:58:15.485Z,-6.73
2022-12-18T06:00:44.045Z,-6.79
2022-12-18T06:03:11.761Z,-6.88
2022-12-18T06:05:43.641Z,-6.71
2022-12-18T06:08:11.516Z,-6.88
2022-12-18T06:10:38.432Z,-6.84
2022-12-18T06:13:05.630Z,-6.74
2022-12-18T06:15:32.138Z,-6.85
2022-12-18T06:17:58.888Z,-6.97
2022-12-18T06:20:30.439Z,-6.82
2022-12-18T06:22:59.638Z,-6.85
2022-12-18T06:25:26.071Z,-6.93
2022-12-18T06:27:52.533Z,-7.02
2022-12-18T06:30:18.965Z,-6.94
2022-12-18T06:32:45.622Z,-7.06
2022-12-18T06:35:15.148Z,-7.02
2022-12-18T06:37:41.707Z,-7.17
2022-12-18T06:40:08.772Z,-7.02
2022-12-18T06:42:35.263Z,-7.04
2022-12-18T06:45:01.708Z,-7.21
2022-12-18T06:47:28.086Z,-7.05
2022-12-18T06:49:54.486Z,-7.19
2022-12-18T06:52:20.908Z,-7.26
2022-12-18T06:54:47.339Z,-7.30
2022-12-18T06:57:13.703Z,-7.41
2022-12-18T06:59:40.186Z,-7.26
2022-12-18T07:02:06.762Z,-7.24
2022-12-18T07:04:33.267Z,-7.21
2022-12-18T07:06:59.741Z,-7.14
2022-12-18T07:09:26.507Z,-7.28
2022-12-18T07:11:53.376Z,-7.25
2022-12-18T07:14:19.869Z,-7.31
2022-12-18T07:16:46.407Z,-7.32
2022-12-18T07:19:12.914Z,-7.37
2022-12-18T07:21:39.609Z,-7.31
2022-12-18T07:24:06.819Z,-7.37
2022-12-18T07:26:33.378Z,-7.30
2022-12-18T07:28:59.876Z,-7.10
2022-12-18T07:31:27.914Z,-6.82
2022-12-18T07:33:55.051Z,-6.87
2022-12-18T07:36:24.233Z,-6.93
2022-12-18T07:38:52.530Z,-7.01
2022-12-18T07:41:19.780Z,-6.85
2022-12-18T07:43:46.642Z,-6.77
2022-12-18T07:46:16.764Z,-6.63
2022-12-18T07:48:45.394Z,-6.66
2022-12-18T07:51:16.449Z,-6.57
2022-12-18T07:53:43.709Z,-6.47
2022-12-18T07:56:29.439Z,-6.30
2022-12-18T07:58:58.842Z,-6.26
2022-12-18T08:01:26.335Z,-6.30
2022-12-18T08:03:52.824Z,-6.18
2022-12-18T08:06:19.634Z,-6.18
2022-12-18T08:08:49.310Z,-5.91
2022-12-18T08:11:16.650Z,-5.95
2022-12-18T08:13:43.345Z,-5.63
2022-12-18T08:16:10.030Z,-5.46
2022-12-18T08:18:39.661Z,-5.39
2022-12-18T08:21:17.770Z,-5.12
2022-12-18T08:23:44.432Z,-4.68
2022-12-18T08:26:14.420Z,-5.10
2022-12-18T08:28:41.373Z,-4.89
2022-12-18T08:31:08.946Z,-4.70
2022-12-18T08:33:38.143Z,-4.81
2022-12-18T08:36:05.556Z,-4.52
2022-12-18T08:38:35.101Z,-4.30
2022-12-18T08:41:05.426Z,-4.06
2022-12-18T08:43:50.588Z,-3.83
2022-12-18T08:46:17.989Z,-4.18
2022-12-18T08:48:44.655Z,-3.75
2022-12-18T08:51:11.391Z,-3.86
2022-12-18T08:53:38.932Z,-3.67
2022-12-18T08:56:06.484Z,-3.64
2022-12-18T08:58:33.016Z,-3.31
2022-12-18T09:01:04.145Z,-3.43
2022-12-18T09:03:30.960Z,-3.40
2022-12-18T09:05:57.563Z,-3.49
2022-12-18T09:08:24.220Z,-3.37
2022-12-18T09:10:51.556Z,-2.82
2022-12-18T09:13:19.307Z,-3.44
2022-12-18T09:15:48.493Z,-3.19
2022-12-18T09:18:16.743Z,-3.63
2022-12-18T09:20:43.348Z,-3.39
2022-12-18T09:23:10.622Z,-3.52
2022-12-18T09:25:38.554Z,-3.15
2022-12-18T09:28:08.208Z,-2.52
2022-12-18T09:30:35.150Z,-2.49
2022-12-18T09:33:02.522Z,-2.40
2022-12-18T09:35:29.099Z,-2.07
2022-12-18T09:37:55.830Z,-2.35
2022-12-18T09:40:26.226Z,-3.02
2022-12-18T09:42:56.853Z,-2.57
2022-12-18T09:45:23.864Z,-3.05
2022-12-18T09:47:53.302Z,-3.29
2022-12-18T09:50:35.157Z,-2.73
2022-12-18T09:53:12.043Z,-2.94
2022-12-18T09:55:42.189Z,-2.27
2022-12-18T09:58:24.376Z,-2.48
2022-12-18T10:00:53.433Z,-3.14
2022-12-18T10:03:19.919Z,-3.04
2022-12-18T10:06:01.393Z,-3.07
2022-12-18T10:08:30.537Z,-2.52
2022-12-18T10:11:13.126Z,-2.48
2022-12-18T10:13:53.538Z,-3.04
2022-12-18T10:16:52.120Z,-2.86
2022-12-18T10:19:37.523Z,-2.50
2022-12-18T10:22:45.531Z,-2.50
2022-12-18T10:25:23.760Z,-3.21
2022-12-18T10:27:56.241Z,-3.06
2022-12-18T10:30:24.666Z,-3.11
2022-12-18T10:32:51.378Z,-3.03
2022-12-18T10:35:21.745Z,-2.65
2022-12-18T10:38:03.630Z,-2.13
2022-12-18T10:40:30.373Z,-2.21
2022-12-18T10:43:14.143Z,-2.51
2022-12-18T10:45:40.791Z,-2.31
2022-12-18T10:48:20.230Z,-1.88
2022-12-18T10:53:38.381Z,-1.97
2022-12-18T10:56:07.191Z,-1.31
2022-12-18T10:58:37.065Z,-1.27
2022-12-18T11:01:23.596Z,-1.65
2022-12-18T11:04:01.997Z,-1.66
2022-12-18T11:06:29.945Z,-1.07
2022-12-18T11:09:00.713Z,-0.98
2022-12-18T11:11:27.936Z,-1.62
2022-12-18T11:14:07.443Z,-1.95
2022-12-18T11:16:37.262Z,-1.85
2022-12-18T11:19:25.298Z,-1.70
2022-12-18T11:21:52.005Z,-1.58
2022-12-18T11:24:28.449Z,-1.14
2022-12-18T11:26:59.701Z,-2.09
2022-12-18T11:29:33.729Z,-2.61
2022-12-18T11:32:25.104Z,-2.82
2022-12-18T11:34:59.313Z,-2.85
2022-12-18T11:37:26.611Z,-3.63
2022-12-18T11:39:58.789Z,-3.44
2022-12-18T11:42:49.308Z,-3.64
2022-12-18T11:45:22.869Z,-3.92
2022-12-18T11:47:58.761Z,-4.06
2022-12-18T11:50:30.592Z,-4.13
2022-12-18T11:53:01.542Z,-4.33
2022-12-18T11:55:48.849Z,-4.47
2022-12-18T11:58:31.738Z,-4.43
2022-12-18T12:01:15.417Z,-4.58
2022-12-18T12:03:57.142Z,-4.76
2022-12-18T12:06:36.290Z,-4.48
2022-12-18T12:09:08.462Z,-4.71
2022-12-18T12:12:10.188Z,-4.42
2022-12-18T12:15:07.702Z,-4.55
2022-12-18T12:17:41.851Z,-4.33
2022-12-18T12:20:43.169Z,-4.60
2022-12-18T12:23:26.064Z,-4.59
2022-12-18T12:26:00.396Z,-4.68
2022-12-18T12:28:44.506Z,-4.42
2022-12-18T12:31:44.158Z,-4.27
2022-12-18T12:34:35.449Z,-4.23
2022-12-18T12:37:12.522Z,-4.10
2022-12-18T12:39:43.325Z,-4.06
2022-12-18T12:42:50.509Z,-4.22
2022-12-18T12:45:29.317Z,-4.53
2022-12-18T12:47:58.631Z,-4.48
2022-12-18T12:50:25.852Z,-4.53
2022-12-18T12:52:56.268Z,-4.52
2022-12-18T12:55:28.636Z,-4.46
2022-12-18T12:57:54.958Z,-4.44
2022-12-18T13:00:21.829Z,-4.32
2022-12-18T13:03:02.646Z,-4.62
2022-12-18T13:05:50.397Z,-4.67
2022-12-18T13:08:26.560Z,-4.88
2022-12-18T13:11:15.381Z,-4.94
2022-12-18T13:13:54.667Z,-5.28
2022-12-18T13:16:25.822Z,-5.39
2022-12-18T13:18:55.312Z,-5.41
2022-12-18T13:21:28.221Z,-5.19
2022-12-18T13:23:55.172Z,-5.18
2022-12-18T13:26:28.904Z,-5.18
2022-12-18T13:28:57.515Z,-5.22
2022-12-18T13:34:31.827Z,-5.37
2022-12-18T13:37:33.783Z,-5.34
2022-12-18T13:40:00.702Z,-5.37
2022-12-18T13:42:48.817Z,-5.35
2022-12-18T13:46:01.033Z,-5.40
2022-12-18T13:48:30.300Z,-5.31
2022-12-18T13:51:11.499Z,-5.35
2022-12-18T13:53:40.377Z,-5.33
2022-12-18T13:56:07.299Z,-5.30
2022-12-18T13:58:34.031Z,-5.18
2022-12-18T14:01:02.961Z,-5.24
2022-12-18T14:03:31.334Z,-5.11
2022-12-18T14:06:06.880Z,-5.56
2022-12-18T14:08:38.499Z,-5.55
2022-12-18T14:11:07.522Z,-5.43
2022-12-18T14:13:42.083Z,-5.34
2022-12-18T14:16:15.157Z,-5.39
2022-12-18T14:18:51.036Z,-5.57
2022-12-18T14:21:27.108Z,-5.38
2022-12-18T14:24:14.525Z,-5.38
2022-12-18T14:26:41.588Z,-5.83
2022-12-18T14:29:30.793Z,-5.81
2022-12-18T14:32:20.708Z,-5.61
2022-12-18T14:34:51.159Z,-5.53
2022-12-18T14:37:22.464Z,-5.88
2022-12-18T14:39:55.982Z,-5.77
2022-12-18T14:42:22.440Z,-5.92
2022-12-18T14:45:12.768Z,-5.82
2022-12-18T14:47:35.300Z,-5.73
2022-12-18T14:50:01.928Z,-5.74
2022-12-18T14:52:32.456Z,-5.63
2022-12-18T14:54:58.951Z,-5.64
2022-12-18T14:57:29.375Z,-5.79
2022-12-18T15:00:23.789Z,-5.77
2022-12-18T15:02:57.920Z,-5.97
2022-12-18T15:05:29.945Z,-5.94
2022-12-18T15:07:58.741Z,-5.97
2022-12-18T15:10:31.289Z,-5.87
2022-12-18T15:12:57.674Z,-5.91
2022-12-18T15:15:39.319Z,-6.01
2022-12-18T15:18:08.675Z,-5.95
2022-12-18T15:20:45.062Z,-5.90
2022-12-18T15:23:18.843Z,-5.96
2022-12-18T15:25:46.341Z,-5.90
2022-12-18T15:28:20.891Z,-5.97
2022-12-18T15:31:00.665Z,-6.01
2022-12-18T15:33:32.999Z,-5.91
2022-12-18T15:36:01.704Z,-6.07
2022-12-18T15:38:28.374Z,-6.10
2022-12-18T15:40:55.267Z,-6.13
2022-12-18T15:43:36.073Z,-6.13
2022-12-18T15:46:04.838Z,-6.14
2022-12-18T15:48:33.990Z,-6.04
2022-12-18T15:51:01.093Z,-6.07
2022-12-18T15:53:31.655Z,-6.10
2022-12-18T15:56:17.909Z,-6.19
2022-12-18T15:58:44.981Z,-6.10
2022-12-18T16:01:11.928Z,-6.16
2022-12-18T16:03:39.038Z,-6.23
2022-12-18T16:06:05.898Z,-6.26
2022-12-18T16:08:32.356Z,-6.19
2022-12-18T16:10:59.224Z,-6.26
2022-12-18T16:13:25.727Z,-6.27
2022-12-18T16:15:52.383Z,-6.24
2022-12-18T16:18:18.929Z,-6.39
2022-12-18T16:20:45.343Z,-6.30
2022-12-18T16:23:11.760Z,-6.30
2022-12-18T16:25:38.199Z,-6.33
2022-12-18T16:28:04.659Z,-6.30
2022-12-18T16:30:33.058Z,-6.34
2022-12-18T16:33:05.012Z,-6.35
2022-12-18T16:35:31.490Z,-6.36
2022-12-18T16:37:57.928Z,-6.36
2022-12-18T16:40:24.401Z,-6.38
2022-12-18T16:42:50.963Z,-6.41
2022-12-18T16:45:18.542Z,-6.38
2022-12-18T16:47:46.335Z,-6.41
2022-12-18T16:50:13.077Z,-6.39
2022-12-18T16:52:39.966Z,-6.41
2022-12-18T16:55:06.499Z,-6.39
2022-12-18T16:57:33.160Z,-6.36
2022-12-18T17:00:04.727Z,-6.35
2022-12-18T17:02:32.093Z,-6.40
2022-12-18T17:04:59.026Z,-6.34
2022-12-18T17:07:26.886Z,-6.32
2022-12-18T17:09:54.184Z,-6.25
2022-12-18T17:12:21.348Z,-6.29
2022-12-18T17:14:47.850Z,-6.37
2022-12-18T17:17:23.859Z,-6.34
2022-12-18T17:19:52.241Z,-6.28
2022-12-18T17:22:19.664Z,-6.38
2022-12-18T17:24:47.356Z,-6.38
2022-12-18T17:27:14.425Z,-6.36
2022-12-18T17:29:47.181Z,-6.36
2022-12-18T17:32:15.424Z,-6.33
2022-12-18T17:34:41.891Z,-6.32
2022-12-18T17:37:08.592Z,-6.29
2022-12-18T17:39:35.038Z,-6.30
2022-12-18T17:42:01.492Z,-6.32
2022-12-18T17:44:28.059Z,-6.34
2022-12-18T17:46:54.521Z,-6.19
2022-12-18T17:49:21.542Z,-6.27
2022-12-18T17:51:48.461Z,-6.29
2022-12-18T17:54:14.957Z,-6.24
2022-12-18T17:56:41.608Z,-6.24
2022-12-18T17:59:08.055Z,-6.26
2022-12-18T18:01:37.297Z,-6.15
2022-12-18T18:04:07.528Z,-6.21
2022-12-18T18:06:34.468Z,-6.16
2022-12-18T18:09:04.335Z,-6.19
2022-12-18T18:11:49.268Z,-6.22
2022-12-18T18:14:20.017Z,-6.22
2022-12-18T18:16:49.258Z,-6.15
2022-12-18T18:19:18.330Z,-6.24
2022-12-18T18:21:47.086Z,-6.18
2022-12-18T18:24:16.269Z,-6.14
2022-12-18T18:26:43.063Z,-6.14
2022-12-18T18:29:20.822Z,-6.28
2022-12-18T18:31:47.868Z,-5.98
2022-12-18T18:34:16.556Z,-5.99
2022-12-18T18:36:43.231Z,-6.02
2022-12-18T18:39:10.465Z,-6.08
2022-12-18T18:41:37.000Z,-6.07
2022-12-18T18:44:04.169Z,-6.13
2022-12-18T18:46:30.572Z,-6.14
2022-12-18T18:48:57.031Z,-6.10
2022-12-18T18:51:23.894Z,-6.06
2022-12-18T18:53:52.508Z,-6.02
2022-12-18T18:56:45.529Z,-6.14
2022-12-18T18:59:13.733Z,-6.15
2022-12-18T19:01:40.339Z,-6.09
2022-12-18T19:04:06.858Z,-6.04
2022-12-18T19:06:33.565Z,-6.05
2022-12-18T19:09:02.360Z,-6.08
2022-12-18T19:11:48.251Z,-6.14
2022-12-18T19:14:15.695Z,-6.12
2022-12-18T19:16:43.641Z,-6.09
2022-12-18T19:19:10.322Z,-6.15
2022-12-18T19:21:38.153Z,-6.11
2022-12-18T19:24:05.902Z,-6.01
2022-12-18T19:26:32.329Z,-6.05
2022-12-18T19:29:07.143Z,-5.97
2022-12-18T19:31:36.352Z,-5.87
2022-12-18T19:34:04.919Z,-6.01
2022-12-18T19:36:32.844Z,-5.96
2022-12-18T19:39:01.065Z,-5.95
2022-12-18T19:41:31.158Z,-6.08
2022-12-18T19:43:58.383Z,-6.08
2022-12-18T19:46:25.069Z,-5.97
2022-12-18T19:48:51.799Z,-5.91
2022-12-18T19:51:26.125Z,-5.90
2022-12-18T19:53:58.493Z,-6.06
2022-12-18T19:56:27.829Z,-5.95
2022-12-18T19:58:54.978Z,-5.85
2022-12-18T20:01:23.644Z,-5.76
2022-12-18T20:03:52.200Z,-5.87
2022-12-18T20:06:28.538Z,-5.83
2022-12-18T20:09:00.347Z,-5.81
2022-12-18T20:11:27.584Z,-5.83
2022-12-18T20:13:53.944Z,-5.84
2022-12-18T20:16:20.647Z,-5.86
2022-12-18T20:18:49.168Z,-5.83
2022-12-18T20:21:15.956Z,-5.80
2022-12-18T20:23:42.766Z,-5.76
2022-12-18T20:26:09.698Z,-5.70
2022-12-18T20:28:36.065Z,-5.77
2022-12-18T20:31:08.137Z,-5.72
2022-12-18T20:33:37.165Z,-5.75
2022-12-18T20:36:06.233Z,-5.76
2022-12-18T20:38:33.994Z,-5.67
2022-12-18T20:41:05.043Z,-5.71
2022-12-18T20:43:31.519Z,-5.73
2022-12-18T20:46:07.790Z,-5.63
2022-12-18T20:48:34.757Z,-5.62
2022-12-18T20:51:07.350Z,-5.58
2022-12-18T20:53:34.701Z,-5.59
2022-12-18T20:56:02.344Z,-5.54
2022-12-18T20:58:28.793Z,-5.51
2022-12-18T21:01:13.276Z,-5.62
2022-12-18T21:03:40.905Z,-5.61
2022-12-18T21:06:07.519Z,-5.58
2022-12-18T21:08:34.157Z,-5.54
2022-12-18T21:11:38.509Z,-5.63
2022-12-18T21:14:19.784Z,-5.62
2022-12-18T21:16:46.680Z,-5.59
2022-12-18T21:19:16.196Z,-5.64
2022-12-18T21:21:43.665Z,-5.69
2022-12-18T21:24:11.481Z,-5.68
2022-12-18T21:26:44.894Z,-5.64
2022-12-18T21:29:15.417Z,-5.62
2022-12-18T21:31:42.810Z,-5.68
2022-12-18T21:34:15.402Z,-5.61
2022-12-18T21:36:41.779Z,-5.66
2022-12-18T21:39:08.362Z,-5.63
2022-12-18T21:41:53.385Z,-5.67
2022-12-18T21:44:22.115Z,-5.73
2022-12-18T21:46:55.013Z,-5.68
2022-12-18T21:49:25.173Z,-5.63
2022-12-18T21:51:54.451Z,-5.58
2022-12-18T21:54:21.268Z,-5.55
2022-12-18T21:56:51.020Z,-5.58
2022-12-18T21:59:22.951Z,-5.67
2022-12-18T22:01:50.748Z,-5.61
2022-12-18T22:04:18.718Z,-5.62
2022-12-18T22:06:46.008Z,-5.67
2022-12-18T22:09:17.025Z,-5.63
2022-12-18T22:11:43.909Z,-5.63
2022-12-18T22:14:11.045Z,-5.52
2022-12-18T22:16:37.550Z,-5.54
2022-12-18T22:19:04.879Z,-5.48
2022-12-18T22:21:37.162Z,-5.50
2022-12-18T22:24:06.734Z,-5.50
2022-12-18T22:26:39.815Z,-5.54
2022-12-18T22:29:25.689Z,-5.51
2022-12-18T22:31:52.181Z,-5.52
2022-12-18T22:34:22.795Z,-5.51
2022-12-18T22:36:49.536Z,-5.50
2022-12-18T22:39:24.424Z,-5.49
2022-12-18T22:41:51.984Z,-5.46
2022-12-18T22:44:18.770Z,-5.41
2022-12-18T22:47:05.532Z,-5.45
2022-12-18T22:49:33.908Z,-5.43
2022-12-18T22:52:01.817Z,-5.44
2022-12-18T22:54:28.202Z,-5.47
2022-12-18T22:56:55.439Z,-5.58
2022-12-18T22:59:23.080Z,-5.59
2022-12-18T23:01:51.452Z,-5.54
2022-12-18T23:04:30.022Z,-5.55
2022-12-18T23:07:04.478Z,-5.60
2022-12-18T23:09:31.002Z,-5.60
2022-12-18T23:11:57.752Z,-5.65
2022-12-18T23:14:24.246Z,-5.61
2022-12-18T23:16:51.479Z,-5.60
2022-12-18T23:19:19.764Z,-5.57
2022-12-18T23:21:46.166Z,-5.65
2022-12-18T23:24:12.578Z,-5.70
2022-12-18T23:26:39.003Z,-5.75
2022-12-18T23:29:05.924Z,-5.81
2022-12-18T23:31:38.415Z,-5.81
2022-12-18T23:34:06.820Z,-5.84
2022-12-18T23:36:35.877Z,-5.78
2022-12-18T23:39:15.440Z,-5.85
2022-12-18T23:41:55.838Z,-5.83
2022-12-18T23:44:22.327Z,-5.87
2022-12-18T23:46:48.735Z,-5.93
2022-12-18T23:49:15.190Z,-5.99
2022-12-18T23:51:41.570Z,-5.96
2022-12-18T23:54:09.246Z,-5.95
2022-12-18T23:56:35.763Z,-5.92
2022-12-18T23:59:02.218Z,-5.87
